sensor_id;sensor_type;location;lat;lon;timestamp;P1;durP1;ratioP1;P2;durP2;ratioP2
6013;SDS011;3035;49.928;8.410;2024-01-27T00:01:28;15.03;;;2.20;;
6013;SDS011;3035;49.928;8.410;2024-01-27T00:03:55;12.13;;;2.00;;
6013;SDS011;3035;49.928;8.410;2024-01-27T00:06:23;8.07;;;1.97;;
6013;SDS011;3035;49.928;8.410;2024-01-27T00:08:50;5.60;;;2.10;;
6013;SDS011;3035;49.928;8.410;2024-01-27T00:11:18;5.50;;;1.90;;
6013;SDS011;3035;49.928;8.410;2024-01-27T00:13:45;13.23;;;1.77;;
6013;SDS011;3035;49.928;8.410;2024-01-27T00:16:13;11.83;;;2.90;;
6013;SDS011;3035;49.928;8.410;2024-01-27T00:18:40;8.03;;;2.40;;
6013;SDS011;3035;49.928;8.410;2024-01-27T00:21:08;6.83;;;1.93;;
6013;SDS011;3035;49.928;8.410;2024-01-27T00:23:35;4.97;;;1.40;;
6013;SDS011;3035;49.928;8.410;2024-01-27T00:26:02;13.60;;;2.00;;
6013;SDS011;3035;49.928;8.410;2024-01-27T00:28:30;9.70;;;2.23;;
6013;SDS011;3035;49.928;8.410;2024-01-27T00:30:57;7.90;;;1.93;;
6013;SDS011;3035;49.928;8.410;2024-01-27T00:33:25;5.23;;;1.50;;
6013;SDS011;3035;49.928;8.410;2024-01-27T00:35:52;7.13;;;2.20;;
6013;SDS011;3035;49.928;8.410;2024-01-27T00:38:20;3.67;;;2.20;;
6013;SDS011;3035;49.928;8.410;2024-01-27T00:40:47;21.90;;;2.87;;
6013;SDS011;3035;49.928;8.410;2024-01-27T00:43:15;6.27;;;2.00;;
6013;SDS011;3035;49.928;8.410;2024-01-27T00:45:42;3.27;;;1.43;;
6013;SDS011;3035;49.928;8.410;2024-01-27T00:48:10;6.87;;;1.73;;
6013;SDS011;3035;49.928;8.410;2024-01-27T00:50:37;6.43;;;2.30;;
6013;SDS011;3035;49.928;8.410;2024-01-27T00:53:04;15.83;;;3.17;;
6013;SDS011;3035;49.928;8.410;2024-01-27T00:55:32;5.20;;;1.47;;
6013;SDS011;3035;49.928;8.410;2024-01-27T00:57:59;7.03;;;1.43;;
6013;SDS011;3035;49.928;8.410;2024-01-27T01:00:27;8.10;;;2.90;;
6013;SDS011;3035;49.928;8.410;2024-01-27T01:02:54;6.57;;;1.73;;
6013;SDS011;3035;49.928;8.410;2024-01-27T01:05:22;7.07;;;1.70;;
6013;SDS011;3035;49.928;8.410;2024-01-27T01:07:49;8.87;;;1.80;;
6013;SDS011;3035;49.928;8.410;2024-01-27T01:10:17;7.50;;;1.93;;
6013;SDS011;3035;49.928;8.410;2024-01-27T01:12:44;8.13;;;2.13;;
6013;SDS011;3035;49.928;8.410;2024-01-27T01:15:12;6.87;;;1.73;;
6013;SDS011;3035;49.928;8.410;2024-01-27T01:17:39;9.83;;;2.10;;
6013;SDS011;3035;49.928;8.410;2024-01-27T01:20:07;5.60;;;1.60;;
6013;SDS011;3035;49.928;8.410;2024-01-27T01:22:34;16.00;;;1.87;;
6013;SDS011;3035;49.928;8.410;2024-01-27T01:25:02;9.00;;;1.90;;
6013;SDS011;3035;49.928;8.410;2024-01-27T01:27:29;17.30;;;2.10;;
6013;SDS011;3035;49.928;8.410;2024-01-27T01:29:57;8.53;;;1.70;;
6013;SDS011;3035;49.928;8.410;2024-01-27T01:32:24;4.20;;;1.43;;
6013;SDS011;3035;49.928;8.410;2024-01-27T01:34:52;3.53;;;1.53;;
6013;SDS011;3035;49.928;8.410;2024-01-27T01:37:19;7.87;;;1.70;;
6013;SDS011;3035;49.928;8.410;2024-01-27T01:39:47;5.53;;;1.70;;
6013;SDS011;3035;49.928;8.410;2024-01-27T01:42:14;6.43;;;2.07;;
6013;SDS011;3035;49.928;8.410;2024-01-27T01:44:42;10.87;;;1.83;;
6013;SDS011;3035;49.928;8.410;2024-01-27T01:47:09;18.67;;;2.00;;
6013;SDS011;3035;49.928;8.410;2024-01-27T01:49:36;4.97;;;1.70;;
6013;SDS011;3035;49.928;8.410;2024-01-27T01:52:04;9.63;;;2.30;;
6013;SDS011;3035;49.928;8.410;2024-01-27T01:54:32;5.10;;;1.83;;
6013;SDS011;3035;49.928;8.410;2024-01-27T01:56:59;4.97;;;2.27;;
6013;SDS011;3035;49.928;8.410;2024-01-27T01:59:27;8.73;;;1.80;;
6013;SDS011;3035;49.928;8.410;2024-01-27T02:01:54;3.23;;;1.43;;
6013;SDS011;3035;49.928;8.410;2024-01-27T02:04:22;10.27;;;1.70;;
6013;SDS011;3035;49.928;8.410;2024-01-27T02:06:49;8.90;;;2.30;;
6013;SDS011;3035;49.928;8.410;2024-01-27T02:09:17;13.93;;;1.87;;
6013;SDS011;3035;49.928;8.410;2024-01-27T02:11:44;11.07;;;1.80;;
6013;SDS011;3035;49.928;8.410;2024-01-27T02:14:11;5.83;;;1.53;;
6013;SDS011;3035;49.928;8.410;2024-01-27T02:16:39;9.13;;;2.10;;
6013;SDS011;3035;49.928;8.410;2024-01-27T02:19:06;10.27;;;2.07;;
6013;SDS011;3035;49.928;8.410;2024-01-27T02:21:34;7.10;;;2.17;;
6013;SDS011;3035;49.928;8.410;2024-01-27T02:24:01;11.20;;;3.40;;
6013;SDS011;3035;49.928;8.410;2024-01-27T02:26:29;13.47;;;3.60;;
6013;SDS011;3035;49.928;8.410;2024-01-27T02:28:56;16.63;;;3.90;;
6013;SDS011;3035;49.928;8.410;2024-01-27T02:31:24;11.63;;;3.60;;
6013;SDS011;3035;49.928;8.410;2024-01-27T02:33:51;16.93;;;3.87;;
6013;SDS011;3035;49.928;8.410;2024-01-27T02:36:19;9.97;;;3.87;;
6013;SDS011;3035;49.928;8.410;2024-01-27T02:38:46;13.60;;;4.20;;
6013;SDS011;3035;49.928;8.410;2024-01-27T02:41:13;13.30;;;3.83;;
6013;SDS011;3035;49.928;8.410;2024-01-27T02:43:41;11.43;;;3.90;;
6013;SDS011;3035;49.928;8.410;2024-01-27T02:46:09;18.03;;;2.70;;
6013;SDS011;3035;49.928;8.410;2024-01-27T02:48:36;6.63;;;2.97;;
6013;SDS011;3035;49.928;8.410;2024-01-27T02:51:03;7.13;;;2.10;;
6013;SDS011;3035;49.928;8.410;2024-01-27T02:53:31;8.87;;;2.33;;
6013;SDS011;3035;49.928;8.410;2024-01-27T02:55:58;22.33;;;4.10;;
6013;SDS011;3035;49.928;8.410;2024-01-27T02:58:26;20.00;;;4.63;;
6013;SDS011;3035;49.928;8.410;2024-01-27T03:00:53;7.13;;;3.37;;
6013;SDS011;3035;49.928;8.410;2024-01-27T03:03:21;11.00;;;2.33;;
6013;SDS011;3035;49.928;8.410;2024-01-27T03:05:48;7.97;;;2.00;;
6013;SDS011;3035;49.928;8.410;2024-01-27T03:08:16;10.23;;;1.77;;
6013;SDS011;3035;49.928;8.410;2024-01-27T03:10:43;12.70;;;2.20;;
6013;SDS011;3035;49.928;8.410;2024-01-27T03:13:11;14.83;;;3.87;;
6013;SDS011;3035;49.928;8.410;2024-01-27T03:15:38;8.63;;;1.53;;
6013;SDS011;3035;49.928;8.410;2024-01-27T03:18:05;11.63;;;1.73;;
6013;SDS011;3035;49.928;8.410;2024-01-27T03:20:33;4.53;;;1.50;;
6013;SDS011;3035;49.928;8.410;2024-01-27T03:23:00;8.83;;;1.87;;
6013;SDS011;3035;49.928;8.410;2024-01-27T03:25:28;6.10;;;1.80;;
6013;SDS011;3035;49.928;8.410;2024-01-27T03:27:55;5.43;;;2.40;;
6013;SDS011;3035;49.928;8.410;2024-01-27T03:30:23;8.77;;;1.63;;
6013;SDS011;3035;49.928;8.410;2024-01-27T03:32:52;9.33;;;1.83;;
6013;SDS011;3035;49.928;8.410;2024-01-27T03:35:19;5.90;;;1.60;;
6013;SDS011;3035;49.928;8.410;2024-01-27T03:37:48;5.83;;;1.93;;
6013;SDS011;3035;49.928;8.410;2024-01-27T03:40:16;5.20;;;1.77;;
6013;SDS011;3035;49.928;8.410;2024-01-27T03:42:43;5.77;;;1.87;;
6013;SDS011;3035;49.928;8.410;2024-01-27T03:45:12;4.80;;;1.53;;
6013;SDS011;3035;49.928;8.410;2024-01-27T03:47:40;7.83;;;2.60;;
6013;SDS011;3035;49.928;8.410;2024-01-27T03:50:08;13.83;;;1.83;;
6013;SDS011;3035;49.928;8.410;2024-01-27T03:52:36;9.37;;;1.80;;
6013;SDS011;3035;49.928;8.410;2024-01-27T03:55:04;7.50;;;1.40;;
6013;SDS011;3035;49.928;8.410;2024-01-27T03:57:32;8.90;;;2.00;;
6013;SDS011;3035;49.928;8.410;2024-01-27T03:59:59;12.10;;;2.63;;
6013;SDS011;3035;49.928;8.410;2024-01-27T04:02:27;7.43;;;1.60;;
6013;SDS011;3035;49.928;8.410;2024-01-27T04:04:54;5.07;;;1.30;;
6013;SDS011;3035;49.928;8.410;2024-01-27T04:07:22;4.87;;;1.40;;
6013;SDS011;3035;49.928;8.410;2024-01-27T04:09:49;5.07;;;2.27;;
6013;SDS011;3035;49.928;8.410;2024-01-27T04:12:17;8.27;;;1.63;;
6013;SDS011;3035;49.928;8.410;2024-01-27T04:14:44;4.07;;;1.73;;
6013;SDS011;3035;49.928;8.410;2024-01-27T04:17:11;6.13;;;1.90;;
6013;SDS011;3035;49.928;8.410;2024-01-27T04:19:40;5.03;;;2.00;;
6013;SDS011;3035;49.928;8.410;2024-01-27T04:22:08;10.10;;;2.00;;
6013;SDS011;3035;49.928;8.410;2024-01-27T04:24:35;8.70;;;2.17;;
6013;SDS011;3035;49.928;8.410;2024-01-27T04:27:04;7.93;;;1.80;;
6013;SDS011;3035;49.928;8.410;2024-01-27T04:29:31;4.30;;;1.63;;
6013;SDS011;3035;49.928;8.410;2024-01-27T04:32:00;12.03;;;2.00;;
6013;SDS011;3035;49.928;8.410;2024-01-27T04:34:28;7.47;;;2.00;;
6013;SDS011;3035;49.928;8.410;2024-01-27T04:36:57;5.50;;;1.90;;
6013;SDS011;3035;49.928;8.410;2024-01-27T04:39:24;5.33;;;2.00;;
6013;SDS011;3035;49.928;8.410;2024-01-27T04:41:52;5.37;;;2.10;;
6013;SDS011;3035;49.928;8.410;2024-01-27T04:44:20;3.63;;;1.90;;
6013;SDS011;3035;49.928;8.410;2024-01-27T04:46:49;7.30;;;2.27;;
6013;SDS011;3035;49.928;8.410;2024-01-27T04:49:17;8.77;;;2.80;;
6013;SDS011;3035;49.928;8.410;2024-01-27T04:51:44;2.43;;;1.60;;
6013;SDS011;3035;49.928;8.410;2024-01-27T04:54:13;15.00;;;1.73;;
6013;SDS011;3035;49.928;8.410;2024-01-27T04:56:41;4.40;;;2.13;;
6013;SDS011;3035;49.928;8.410;2024-01-27T04:59:10;3.93;;;1.97;;
6013;SDS011;3035;49.928;8.410;2024-01-27T05:01:38;8.40;;;2.13;;
6013;SDS011;3035;49.928;8.410;2024-01-27T05:04:06;3.07;;;2.10;;
6013;SDS011;3035;49.928;8.410;2024-01-27T05:06:33;7.13;;;2.00;;
6013;SDS011;3035;49.928;8.410;2024-01-27T05:09:01;4.17;;;1.63;;
6013;SDS011;3035;49.928;8.410;2024-01-27T05:11:29;8.80;;;2.77;;
6013;SDS011;3035;49.928;8.410;2024-01-27T05:13:56;7.97;;;1.60;;
6013;SDS011;3035;49.928;8.410;2024-01-27T05:16:23;2.97;;;2.10;;
6013;SDS011;3035;49.928;8.410;2024-01-27T05:18:51;6.60;;;2.30;;
6013;SDS011;3035;49.928;8.410;2024-01-27T05:21:18;8.90;;;2.07;;
6013;SDS011;3035;49.928;8.410;2024-01-27T05:23:45;3.27;;;1.50;;
6013;SDS011;3035;49.928;8.410;2024-01-27T05:26:13;4.80;;;2.40;;
6013;SDS011;3035;49.928;8.410;2024-01-27T05:28:40;7.40;;;2.30;;
6013;SDS011;3035;49.928;8.410;2024-01-27T05:31:08;5.00;;;1.50;;
6013;SDS011;3035;49.928;8.410;2024-01-27T05:33:35;6.17;;;2.37;;
6013;SDS011;3035;49.928;8.410;2024-01-27T05:36:03;18.10;;;3.13;;
6013;SDS011;3035;49.928;8.410;2024-01-27T05:38:30;6.07;;;2.47;;
6013;SDS011;3035;49.928;8.410;2024-01-27T05:41:01;7.47;;;2.63;;
6013;SDS011;3035;49.928;8.410;2024-01-27T05:43:28;12.00;;;3.63;;
6013;SDS011;3035;49.928;8.410;2024-01-27T05:45:56;9.70;;;4.17;;
6013;SDS011;3035;49.928;8.410;2024-01-27T05:48:23;6.47;;;3.60;;
6013;SDS011;3035;49.928;8.410;2024-01-27T05:50:57;9.47;;;3.00;;
6013;SDS011;3035;49.928;8.410;2024-01-27T05:53:24;7.40;;;3.57;;
6013;SDS011;3035;49.928;8.410;2024-01-27T05:55:51;11.10;;;3.43;;
6013;SDS011;3035;49.928;8.410;2024-01-27T05:58:19;5.77;;;2.70;;
6013;SDS011;3035;49.928;8.410;2024-01-27T06:00:47;8.20;;;2.87;;
6013;SDS011;3035;49.928;8.410;2024-01-27T06:03:15;7.47;;;2.07;;
6013;SDS011;3035;49.928;8.410;2024-01-27T06:05:42;7.80;;;2.20;;
6013;SDS011;3035;49.928;8.410;2024-01-27T06:08:09;7.47;;;2.63;;
6013;SDS011;3035;49.928;8.410;2024-01-27T06:10:37;6.73;;;2.10;;
6013;SDS011;3035;49.928;8.410;2024-01-27T06:13:04;5.97;;;3.03;;
6013;SDS011;3035;49.928;8.410;2024-01-27T06:15:32;13.60;;;3.60;;
6013;SDS011;3035;49.928;8.410;2024-01-27T06:17:59;10.23;;;3.30;;
6013;SDS011;3035;49.928;8.410;2024-01-27T06:20:27;9.93;;;3.40;;
6013;SDS011;3035;49.928;8.410;2024-01-27T06:22:54;10.50;;;4.30;;
6013;SDS011;3035;49.928;8.410;2024-01-27T06:25:22;8.03;;;3.83;;
6013;SDS011;3035;49.928;8.410;2024-01-27T06:27:49;6.70;;;3.80;;
6013;SDS011;3035;49.928;8.410;2024-01-27T06:30:17;10.87;;;4.27;;
6013;SDS011;3035;49.928;8.410;2024-01-27T06:32:44;19.43;;;4.03;;
6013;SDS011;3035;49.928;8.410;2024-01-27T06:35:12;5.23;;;3.40;;
6013;SDS011;3035;49.928;8.410;2024-01-27T06:37:39;6.50;;;2.77;;
6013;SDS011;3035;49.928;8.410;2024-01-27T06:40:07;6.93;;;2.70;;
6013;SDS011;3035;49.928;8.410;2024-01-27T06:42:34;7.20;;;3.30;;
6013;SDS011;3035;49.928;8.410;2024-01-27T06:45:02;7.33;;;3.10;;
6013;SDS011;3035;49.928;8.410;2024-01-27T06:47:29;4.30;;;3.00;;
6013;SDS011;3035;49.928;8.410;2024-01-27T06:49:57;8.50;;;3.60;;
6013;SDS011;3035;49.928;8.410;2024-01-27T06:52:24;8.57;;;3.23;;
6013;SDS011;3035;49.928;8.410;2024-01-27T06:54:52;18.60;;;2.40;;
6013;SDS011;3035;49.928;8.410;2024-01-27T06:57:19;9.57;;;3.10;;
6013;SDS011;3035;49.928;8.410;2024-01-27T06:59:48;3.77;;;2.53;;
6013;SDS011;3035;49.928;8.410;2024-01-27T07:02:15;5.40;;;2.07;;
6013;SDS011;3035;49.928;8.410;2024-01-27T07:04:42;7.67;;;2.20;;
6013;SDS011;3035;49.928;8.410;2024-01-27T07:07:10;3.87;;;2.60;;
6013;SDS011;3035;49.928;8.410;2024-01-27T07:09:37;2.30;;;2.00;;
6013;SDS011;3035;49.928;8.410;2024-01-27T07:12:05;15.07;;;2.33;;
6013;SDS011;3035;49.928;8.410;2024-01-27T07:14:32;5.40;;;2.70;;
6013;SDS011;3035;49.928;8.410;2024-01-27T07:17:00;11.40;;;2.57;;
6013;SDS011;3035;49.928;8.410;2024-01-27T07:19:27;14.10;;;2.23;;
6013;SDS011;3035;49.928;8.410;2024-01-27T07:21:55;5.03;;;2.50;;
6013;SDS011;3035;49.928;8.410;2024-01-27T07:24:22;5.83;;;2.70;;
6013;SDS011;3035;49.928;8.410;2024-01-27T07:26:50;11.70;;;2.73;;
6013;SDS011;3035;49.928;8.410;2024-01-27T07:29:17;11.43;;;3.10;;
6013;SDS011;3035;49.928;8.410;2024-01-27T07:31:44;3.20;;;2.10;;
6013;SDS011;3035;49.928;8.410;2024-01-27T07:34:12;10.20;;;2.93;;
6013;SDS011;3035;49.928;8.410;2024-01-27T07:36:39;5.97;;;2.67;;
6013;SDS011;3035;49.928;8.410;2024-01-27T07:39:07;6.60;;;2.47;;
6013;SDS011;3035;49.928;8.410;2024-01-27T07:41:34;8.23;;;2.87;;
6013;SDS011;3035;49.928;8.410;2024-01-27T07:44:07;10.07;;;3.27;;
6013;SDS011;3035;49.928;8.410;2024-01-27T07:46:37;10.37;;;3.10;;
6013;SDS011;3035;49.928;8.410;2024-01-27T07:49:05;7.30;;;2.93;;
6013;SDS011;3035;49.928;8.410;2024-01-27T07:51:32;11.60;;;3.70;;
6013;SDS011;3035;49.928;8.410;2024-01-27T07:54:00;20.00;;;3.83;;
6013;SDS011;3035;49.928;8.410;2024-01-27T07:56:27;9.50;;;2.67;;
6013;SDS011;3035;49.928;8.410;2024-01-27T07:58:54;15.87;;;2.83;;
6013;SDS011;3035;49.928;8.410;2024-01-27T08:01:21;5.83;;;2.50;;
6013;SDS011;3035;49.928;8.410;2024-01-27T08:03:49;11.03;;;3.10;;
6013;SDS011;3035;49.928;8.410;2024-01-27T08:06:17;15.43;;;3.33;;
6013;SDS011;3035;49.928;8.410;2024-01-27T08:08:47;10.50;;;3.43;;
6013;SDS011;3035;49.928;8.410;2024-01-27T08:11:14;6.13;;;2.53;;
6013;SDS011;3035;49.928;8.410;2024-01-27T08:13:42;13.20;;;3.50;;
6013;SDS011;3035;49.928;8.410;2024-01-27T08:16:09;21.50;;;3.57;;
6013;SDS011;3035;49.928;8.410;2024-01-27T08:18:36;16.27;;;3.20;;
6013;SDS011;3035;49.928;8.410;2024-01-27T08:21:04;7.17;;;2.80;;
6013;SDS011;3035;49.928;8.410;2024-01-27T08:23:31;8.80;;;4.17;;
6013;SDS011;3035;49.928;8.410;2024-01-27T08:25:59;7.10;;;2.83;;
6013;SDS011;3035;49.928;8.410;2024-01-27T08:28:26;4.77;;;3.20;;
6013;SDS011;3035;49.928;8.410;2024-01-27T08:30:54;13.70;;;3.47;;
6013;SDS011;3035;49.928;8.410;2024-01-27T08:33:21;9.13;;;2.63;;
6013;SDS011;3035;49.928;8.410;2024-01-27T08:35:49;9.43;;;3.33;;
6013;SDS011;3035;49.928;8.410;2024-01-27T08:38:16;7.20;;;3.33;;
6013;SDS011;3035;49.928;8.410;2024-01-27T08:40:44;6.13;;;3.40;;
6013;SDS011;3035;49.928;8.410;2024-01-27T08:43:11;11.23;;;3.30;;
6013;SDS011;3035;49.928;8.410;2024-01-27T08:45:38;7.83;;;3.30;;
6013;SDS011;3035;49.928;8.410;2024-01-27T08:48:06;6.70;;;3.37;;
6013;SDS011;3035;49.928;8.410;2024-01-27T08:50:34;7.50;;;3.17;;
6013;SDS011;3035;49.928;8.410;2024-01-27T08:53:02;13.20;;;3.67;;
6013;SDS011;3035;49.928;8.410;2024-01-27T08:55:30;9.67;;;3.90;;
6013;SDS011;3035;49.928;8.410;2024-01-27T08:57:59;7.97;;;3.10;;
6013;SDS011;3035;49.928;8.410;2024-01-27T09:00:27;6.67;;;3.20;;
6013;SDS011;3035;49.928;8.410;2024-01-27T09:02:56;9.40;;;4.40;;
6013;SDS011;3035;49.928;8.410;2024-01-27T09:05:23;10.07;;;3.13;;
6013;SDS011;3035;49.928;8.410;2024-01-27T09:07:51;10.03;;;3.03;;
6013;SDS011;3035;49.928;8.410;2024-01-27T09:10:20;8.53;;;4.00;;
6013;SDS011;3035;49.928;8.410;2024-01-27T09:12:47;8.93;;;2.83;;
6013;SDS011;3035;49.928;8.410;2024-01-27T09:15:15;6.33;;;3.07;;
6013;SDS011;3035;49.928;8.410;2024-01-27T09:17:44;6.33;;;2.93;;
6013;SDS011;3035;49.928;8.410;2024-01-27T09:20:12;5.63;;;3.07;;
6013;SDS011;3035;49.928;8.410;2024-01-27T09:22:40;9.23;;;3.00;;
6013;SDS011;3035;49.928;8.410;2024-01-27T09:25:08;5.20;;;3.00;;
6013;SDS011;3035;49.928;8.410;2024-01-27T09:27:36;6.57;;;3.33;;
6013;SDS011;3035;49.928;8.410;2024-01-27T09:30:05;17.03;;;3.30;;
6013;SDS011;3035;49.928;8.410;2024-01-27T09:32:33;5.40;;;3.40;;
6013;SDS011;3035;49.928;8.410;2024-01-27T09:35:00;18.90;;;3.70;;
6013;SDS011;3035;49.928;8.410;2024-01-27T09:37:29;7.23;;;2.90;;
6013;SDS011;3035;49.928;8.410;2024-01-27T09:39:57;6.17;;;3.43;;
6013;SDS011;3035;49.928;8.410;2024-01-27T09:42:25;7.73;;;3.07;;
6013;SDS011;3035;49.928;8.410;2024-01-27T09:44:52;12.20;;;3.00;;
6013;SDS011;3035;49.928;8.410;2024-01-27T09:47:21;8.70;;;3.60;;
6013;SDS011;3035;49.928;8.410;2024-01-27T09:49:49;9.73;;;3.70;;
6013;SDS011;3035;49.928;8.410;2024-01-27T09:52:18;12.03;;;3.80;;
6013;SDS011;3035;49.928;8.410;2024-01-27T09:54:45;16.67;;;3.43;;
6013;SDS011;3035;49.928;8.410;2024-01-27T09:57:13;14.80;;;2.80;;
6013;SDS011;3035;49.928;8.410;2024-01-27T09:59:41;5.47;;;3.17;;
6013;SDS011;3035;49.928;8.410;2024-01-27T10:02:11;7.57;;;2.43;;
6013;SDS011;3035;49.928;8.410;2024-01-27T10:04:40;11.83;;;3.00;;
6013;SDS011;3035;49.928;8.410;2024-01-27T10:07:08;10.50;;;3.20;;
6013;SDS011;3035;49.928;8.410;2024-01-27T10:09:36;6.80;;;2.67;;
6013;SDS011;3035;49.928;8.410;2024-01-27T10:12:04;9.67;;;2.87;;
6013;SDS011;3035;49.928;8.410;2024-01-27T10:14:40;13.80;;;3.27;;
6013;SDS011;3035;49.928;8.410;2024-01-27T10:17:10;8.20;;;2.60;;
6013;SDS011;3035;49.928;8.410;2024-01-27T10:19:38;8.30;;;3.13;;
6013;SDS011;3035;49.928;8.410;2024-01-27T10:22:05;6.20;;;2.60;;
6013;SDS011;3035;49.928;8.410;2024-01-27T10:24:32;10.10;;;3.80;;
6013;SDS011;3035;49.928;8.410;2024-01-27T10:27:01;7.00;;;3.20;;
6013;SDS011;3035;49.928;8.410;2024-01-27T10:29:30;10.87;;;3.60;;
6013;SDS011;3035;49.928;8.410;2024-01-27T10:32:06;10.93;;;4.13;;
6013;SDS011;3035;49.928;8.410;2024-01-27T10:34:40;8.50;;;3.40;;
6013;SDS011;3035;49.928;8.410;2024-01-27T10:37:11;7.40;;;3.10;;
6013;SDS011;3035;49.928;8.410;2024-01-27T10:39:37;8.17;;;3.43;;
6013;SDS011;3035;49.928;8.410;2024-01-27T10:42:05;12.37;;;3.30;;
6013;SDS011;3035;49.928;8.410;2024-01-27T10:44:34;9.90;;;3.57;;
6013;SDS011;3035;49.928;8.410;2024-01-27T10:47:02;4.33;;;3.13;;
6013;SDS011;3035;49.928;8.410;2024-01-27T10:49:30;7.07;;;3.70;;
6013;SDS011;3035;49.928;8.410;2024-01-27T10:51:58;7.87;;;4.27;;
6013;SDS011;3035;49.928;8.410;2024-01-27T10:54:26;10.20;;;3.50;;
6013;SDS011;3035;49.928;8.410;2024-01-27T10:56:55;10.43;;;4.40;;
6013;SDS011;3035;49.928;8.410;2024-01-27T10:59:22;38.23;;;13.70;;
6013;SDS011;3035;49.928;8.410;2024-01-27T11:01:50;30.53;;;10.43;;
6013;SDS011;3035;49.928;8.410;2024-01-27T11:04:19;34.17;;;10.00;;
6013;SDS011;3035;49.928;8.410;2024-01-27T11:06:48;25.47;;;5.83;;
6013;SDS011;3035;49.928;8.410;2024-01-27T11:09:17;11.17;;;4.87;;
6013;SDS011;3035;49.928;8.410;2024-01-27T11:11:45;13.27;;;4.97;;
6013;SDS011;3035;49.928;8.410;2024-01-27T11:14:13;13.07;;;4.07;;
6013;SDS011;3035;49.928;8.410;2024-01-27T11:16:41;11.57;;;3.23;;
6013;SDS011;3035;49.928;8.410;2024-01-27T11:19:11;9.60;;;3.83;;
6013;SDS011;3035;49.928;8.410;2024-01-27T11:21:38;8.40;;;3.00;;
6013;SDS011;3035;49.928;8.410;2024-01-27T11:24:13;10.97;;;3.73;;
6013;SDS011;3035;49.928;8.410;2024-01-27T11:26:41;9.73;;;3.70;;
6013;SDS011;3035;49.928;8.410;2024-01-27T11:29:10;13.10;;;4.03;;
6013;SDS011;3035;49.928;8.410;2024-01-27T11:31:49;15.43;;;3.27;;
6013;SDS011;3035;49.928;8.410;2024-01-27T11:34:17;14.13;;;3.93;;
6013;SDS011;3035;49.928;8.410;2024-01-27T11:36:45;16.40;;;3.23;;
6013;SDS011;3035;49.928;8.410;2024-01-27T11:41:52;13.07;;;3.17;;
6013;SDS011;3035;49.928;8.410;2024-01-27T11:44:20;8.60;;;3.40;;
6013;SDS011;3035;49.928;8.410;2024-01-27T11:46:48;12.83;;;3.10;;
6013;SDS011;3035;49.928;8.410;2024-01-27T11:49:17;8.47;;;3.50;;
6013;SDS011;3035;49.928;8.410;2024-01-27T11:51:45;13.47;;;4.37;;
6013;SDS011;3035;49.928;8.410;2024-01-27T11:54:12;12.37;;;3.40;;
6013;SDS011;3035;49.928;8.410;2024-01-27T11:56:41;11.97;;;3.27;;
6013;SDS011;3035;49.928;8.410;2024-01-27T11:59:10;5.47;;;3.00;;
6013;SDS011;3035;49.928;8.410;2024-01-27T12:01:37;10.13;;;4.00;;
6013;SDS011;3035;49.928;8.410;2024-01-27T12:04:05;11.53;;;3.60;;
6013;SDS011;3035;49.928;8.410;2024-01-27T12:06:33;14.13;;;3.87;;
6013;SDS011;3035;49.928;8.410;2024-01-27T12:09:01;10.43;;;3.37;;
6013;SDS011;3035;49.928;8.410;2024-01-27T12:11:29;14.23;;;3.37;;
6013;SDS011;3035;49.928;8.410;2024-01-27T12:13:57;19.67;;;4.63;;
6013;SDS011;3035;49.928;8.410;2024-01-27T12:16:25;8.20;;;2.90;;
6013;SDS011;3035;49.928;8.410;2024-01-27T12:18:53;8.00;;;2.37;;
6013;SDS011;3035;49.928;8.410;2024-01-27T12:21:22;10.13;;;3.20;;
6013;SDS011;3035;49.928;8.410;2024-01-27T12:23:50;10.77;;;3.17;;
6013;SDS011;3035;49.928;8.410;2024-01-27T12:26:19;11.37;;;2.40;;
6013;SDS011;3035;49.928;8.410;2024-01-27T12:28:46;9.90;;;2.53;;
6013;SDS011;3035;49.928;8.410;2024-01-27T12:31:16;16.43;;;2.90;;
6013;SDS011;3035;49.928;8.410;2024-01-27T12:33:48;11.30;;;3.10;;
6013;SDS011;3035;49.928;8.410;2024-01-27T12:36:21;6.13;;;2.87;;
6013;SDS011;3035;49.928;8.410;2024-01-27T12:41:25;16.17;;;3.37;;
6013;SDS011;3035;49.928;8.410;2024-01-27T12:43:53;24.03;;;3.57;;
6013;SDS011;3035;49.928;8.410;2024-01-27T12:46:21;9.50;;;2.83;;
6013;SDS011;3035;49.928;8.410;2024-01-27T12:48:49;9.70;;;2.63;;
6013;SDS011;3035;49.928;8.410;2024-01-27T12:51:17;7.80;;;2.23;;
6013;SDS011;3035;49.928;8.410;2024-01-27T12:53:45;14.93;;;3.30;;
6013;SDS011;3035;49.928;8.410;2024-01-27T12:56:14;18.00;;;2.87;;
6013;SDS011;3035;49.928;8.410;2024-01-27T12:58:41;11.97;;;2.50;;
6013;SDS011;3035;49.928;8.410;2024-01-27T13:01:09;8.80;;;2.13;;
6013;SDS011;3035;49.928;8.410;2024-01-27T13:03:37;9.87;;;2.57;;
6013;SDS011;3035;49.928;8.410;2024-01-27T13:06:04;9.00;;;3.00;;
6013;SDS011;3035;49.928;8.410;2024-01-27T13:08:32;7.13;;;2.30;;
6013;SDS011;3035;49.928;8.410;2024-01-27T13:10:59;7.50;;;2.00;;
6013;SDS011;3035;49.928;8.410;2024-01-27T13:13:27;8.43;;;2.73;;
6013;SDS011;3035;49.928;8.410;2024-01-27T13:15:54;7.70;;;2.93;;
6013;SDS011;3035;49.928;8.410;2024-01-27T13:18:22;13.07;;;2.87;;
6013;SDS011;3035;49.928;8.410;2024-01-27T13:20:49;9.63;;;2.40;;
6013;SDS011;3035;49.928;8.410;2024-01-27T13:23:16;13.97;;;3.47;;
6013;SDS011;3035;49.928;8.410;2024-01-27T13:25:44;6.97;;;2.57;;
6013;SDS011;3035;49.928;8.410;2024-01-27T13:28:11;9.20;;;3.23;;
6013;SDS011;3035;49.928;8.410;2024-01-27T13:30:39;11.90;;;2.93;;
6013;SDS011;3035;49.928;8.410;2024-01-27T13:33:06;5.93;;;2.50;;
6013;SDS011;3035;49.928;8.410;2024-01-27T13:35:34;6.80;;;3.30;;
6013;SDS011;3035;49.928;8.410;2024-01-27T13:38:01;15.97;;;3.63;;
6013;SDS011;3035;49.928;8.410;2024-01-27T13:40:29;10.93;;;2.53;;
6013;SDS011;3035;49.928;8.410;2024-01-27T13:42:56;9.50;;;2.20;;
6013;SDS011;3035;49.928;8.410;2024-01-27T13:45:24;11.00;;;2.80;;
6013;SDS011;3035;49.928;8.410;2024-01-27T13:47:51;6.60;;;2.90;;
6013;SDS011;3035;49.928;8.410;2024-01-27T13:50:19;14.10;;;3.10;;
6013;SDS011;3035;49.928;8.410;2024-01-27T13:52:47;8.13;;;3.17;;
6013;SDS011;3035;49.928;8.410;2024-01-27T13:55:14;12.13;;;3.63;;
6013;SDS011;3035;49.928;8.410;2024-01-27T13:57:41;6.23;;;2.57;;
6013;SDS011;3035;49.928;8.410;2024-01-27T14:00:09;6.40;;;2.30;;
6013;SDS011;3035;49.928;8.410;2024-01-27T14:02:38;8.60;;;2.77;;
6013;SDS011;3035;49.928;8.410;2024-01-27T14:05:05;8.23;;;2.30;;
6013;SDS011;3035;49.928;8.410;2024-01-27T14:07:33;10.80;;;2.67;;
6013;SDS011;3035;49.928;8.410;2024-01-27T14:10:01;9.03;;;2.30;;
6013;SDS011;3035;49.928;8.410;2024-01-27T14:12:28;16.10;;;3.10;;
6013;SDS011;3035;49.928;8.410;2024-01-27T14:15:01;18.47;;;3.23;;
6013;SDS011;3035;49.928;8.410;2024-01-27T14:17:23;10.83;;;3.30;;
6013;SDS011;3035;49.928;8.410;2024-01-27T14:19:50;7.93;;;3.13;;
6013;SDS011;3035;49.928;8.410;2024-01-27T14:22:19;9.70;;;2.53;;
6013;SDS011;3035;49.928;8.410;2024-01-27T14:24:47;15.63;;;3.53;;
6013;SDS011;3035;49.928;8.410;2024-01-27T14:27:15;13.63;;;2.67;;
6013;SDS011;3035;49.928;8.410;2024-01-27T14:29:43;7.87;;;2.17;;
6013;SDS011;3035;49.928;8.410;2024-01-27T14:32:11;7.90;;;2.20;;
6013;SDS011;3035;49.928;8.410;2024-01-27T14:34:39;7.23;;;2.57;;
6013;SDS011;3035;49.928;8.410;2024-01-27T14:37:08;5.80;;;2.80;;
6013;SDS011;3035;49.928;8.410;2024-01-27T14:39:35;5.30;;;2.03;;
6013;SDS011;3035;49.928;8.410;2024-01-27T14:42:03;11.80;;;2.87;;
6013;SDS011;3035;49.928;8.410;2024-01-27T14:44:31;7.60;;;2.87;;
6013;SDS011;3035;49.928;8.410;2024-01-27T14:46:59;10.33;;;2.60;;
6013;SDS011;3035;49.928;8.410;2024-01-27T14:49:26;13.50;;;2.10;;
6013;SDS011;3035;49.928;8.410;2024-01-27T14:51:54;8.13;;;2.47;;
6013;SDS011;3035;49.928;8.410;2024-01-27T14:54:21;15.20;;;2.13;;
6013;SDS011;3035;49.928;8.410;2024-01-27T14:56:48;7.53;;;1.83;;
6013;SDS011;3035;49.928;8.410;2024-01-27T14:59:16;10.43;;;2.13;;
6013;SDS011;3035;49.928;8.410;2024-01-27T15:01:43;11.67;;;2.23;;
6013;SDS011;3035;49.928;8.410;2024-01-27T15:04:11;6.83;;;2.13;;
6013;SDS011;3035;49.928;8.410;2024-01-27T15:06:38;11.37;;;2.30;;
6013;SDS011;3035;49.928;8.410;2024-01-27T15:09:06;4.17;;;1.57;;
6013;SDS011;3035;49.928;8.410;2024-01-27T15:11:33;15.27;;;2.93;;
6013;SDS011;3035;49.928;8.410;2024-01-27T15:14:01;10.77;;;2.23;;
6013;SDS011;3035;49.928;8.410;2024-01-27T15:16:28;13.40;;;2.27;;
6013;SDS011;3035;49.928;8.410;2024-01-27T15:18:55;6.60;;;2.63;;